sensor_id;sensor_type;location;lat;lon;timestamp;temperature;humidity
27409;DHT22;20413;50.782;7.152;2022-12-07T00:01:18;5.30;99.90
27409;DHT22;20413;50.782;7.152;2022-12-07T00:03:45;5.30;99.90
27409;DHT22;20413;50.782;7.152;2022-12-07T00:06:13;5.30;99.90
27409;DHT22;20413;50.782;7.152;2022-12-07T00:08:39;5.30;99.90
27409;DHT22;20413;50.782;7.152;2022-12-07T00:11:16;5.30;99.90
27409;DHT22;20413;50.782;7.152;2022-12-07T00:13:43;5.30;99.90
27409;DHT22;20413;50.782;7.152;2022-12-07T00:16:14;5.30;99.90
27409;DHT22;20413;50.782;7.152;2022-12-07T00:18:41;5.40;99.90
27409;DHT22;20413;50.782;7.152;2022-12-07T00:21:10;5.40;99.90
27409;DHT22;20413;50.782;7.152;2022-12-07T00:23:37;5.40;99.90
27409;DHT22;20413;50.782;7.152;2022-12-07T00:26:12;5.40;99.90
27409;DHT22;20413;50.782;7.152;2022-12-07T00:28:38;5.40;99.90
27409;DHT22;20413;50.782;7.152;2022-12-07T00:31:07;5.40;99.90
27409;DHT22;20413;50.782;7.152;2022-12-07T00:33:34;5.40;99.90
27409;DHT22;20413;50.782;7.152;2022-12-07T00:36:01;5.40;99.90
27409;DHT22;20413;50.782;7.152;2022-12-07T00:38:29;5.40;99.90
27409;DHT22;20413;50.782;7.152;2022-12-07T00:41:06;5.50;99.90
27409;DHT22;20413;50.782;7.152;2022-12-07T00:43:33;5.50;99.90
27409;DHT22;20413;50.782;7.152;2022-12-07T00:45:58;5.50;99.90
27409;DHT22;20413;50.782;7.152;2022-12-07T00:48:25;5.50;99.90
27409;DHT22;20413;50.782;7.152;2022-12-07T00:50:50;5.50;99.90
27409;DHT22;20413;50.782;7.152;2022-12-07T00:53:16;5.60;99.90
27409;DHT22;20413;50.782;7.152;2022-12-07T00:55:42;5.50;99.90
27409;DHT22;20413;50.782;7.152;2022-12-07T00:58:08;5.50;99.90
27409;DHT22;20413;50.782;7.152;2022-12-07T01:00:36;5.60;99.90
27409;DHT22;20413;50.782;7.152;2022-12-07T01:03:03;5.60;99.90
27409;DHT22;20413;50.782;7.152;2022-12-07T01:05:29;5.60;99.90
27409;DHT22;20413;50.782;7.152;2022-12-07T01:07:55;5.60;99.90
27409;DHT22;20413;50.782;7.152;2022-12-07T01:10:20;5.60;99.90
27409;DHT22;20413;50.782;7.152;2022-12-07T01:12:46;5.60;99.90
27409;DHT22;20413;50.782;7.152;2022-12-07T01:15:11;5.60;99.90
27409;DHT22;20413;50.782;7.152;2022-12-07T01:17:37;5.60;99.90
27409;DHT22;20413;50.782;7.152;2022-12-07T01:20:03;5.60;99.90
27409;DHT22;20413;50.782;7.152;2022-12-07T01:22:29;5.60;99.90
27409;DHT22;20413;50.782;7.152;2022-12-07T01:24:54;5.60;99.90
27409;DHT22;20413;50.782;7.152;2022-12-07T01:27:20;5.70;99.90
27409;DHT22;20413;50.782;7.152;2022-12-07T01:29:45;5.60;99.90
27409;DHT22;20413;50.782;7.152;2022-12-07T01:32:11;5.60;99.90
27409;DHT22;20413;50.782;7.152;2022-12-07T01:34:37;5.60;99.90
27409;DHT22;20413;50.782;7.152;2022-12-07T01:37:03;5.60;99.90
27409;DHT22;20413;50.782;7.152;2022-12-07T01:39:28;5.60;99.90
27409;DHT22;20413;50.782;7.152;2022-12-07T01:41:54;5.60;99.90
27409;DHT22;20413;50.782;7.152;2022-12-07T01:44:23;5.60;99.90
27409;DHT22;20413;50.782;7.152;2022-12-07T01:46:57;5.60;99.90
27409;DHT22;20413;50.782;7.152;2022-12-07T01:49:42;5.60;99.90
27409;DHT22;20413;50.782;7.152;2022-12-07T01:52:19;5.60;99.90
27409;DHT22;20413;50.782;7.152;2022-12-07T01:54:47;5.60;99.90
27409;DHT22;20413;50.782;7.152;2022-12-07T01:57:16;5.60;99.90
27409;DHT22;20413;50.782;7.152;2022-12-07T01:59:43;5.60;99.90
27409;DHT22;20413;50.782;7.152;2022-12-07T02:02:24;5.60;99.90
27409;DHT22;20413;50.782;7.152;2022-12-07T02:04:52;5.60;99.90
27409;DHT22;20413;50.782;7.152;2022-12-07T02:07:20;5.70;99.90
27409;DHT22;20413;50.782;7.152;2022-12-07T02:09:46;5.70;99.90
27409;DHT22;20413;50.782;7.152;2022-12-07T02:12:11;5.70;99.90
27409;DHT22;20413;50.782;7.152;2022-12-07T02:14:37;5.70;99.90
27409;DHT22;20413;50.782;7.152;2022-12-07T02:17:14;5.70;99.90
27409;DHT22;20413;50.782;7.152;2022-12-07T02:22:51;5.70;99.90
27409;DHT22;20413;50.782;7.152;2022-12-07T02:31:04;5.70;99.90
27409;DHT22;20413;50.782;7.152;2022-12-07T02:33:36;5.70;99.90
27409;DHT22;20413;50.782;7.152;2022-12-07T02:36:10;5.70;99.90
27409;DHT22;20413;50.782;7.152;2022-12-07T02:38:43;5.70;99.90
27409;DHT22;20413;50.782;7.152;2022-12-07T02:41:16;5.70;99.90
27409;DHT22;20413;50.782;7.152;2022-12-07T02:43:47;5.70;99.90
27409;DHT22;20413;50.782;7.152;2022-12-07T02:46:18;5.70;99.90
27409;DHT22;20413;50.782;7.152;2022-12-07T02:48:46;5.70;99.90
27409;DHT22;20413;50.782;7.152;2022-12-07T02:51:13;5.70;99.90
27409;DHT22;20413;50.782;7.152;2022-12-07T02:53:41;5.70;99.90
27409;DHT22;20413;50.782;7.152;2022-12-07T02:56:34;5.70;99.90
27409;DHT22;20413;50.782;7.152;2022-12-07T03:01:49;5.70;99.90
27409;DHT22;20413;50.782;7.152;2022-12-07T03:04:33;5.70;99.90
27409;DHT22;20413;50.782;7.152;2022-12-07T03:07:06;5.70;99.90
27409;DHT22;20413;50.782;7.152;2022-12-07T03:12:32;5.70;99.90
27409;DHT22;20413;50.782;7.152;2022-12-07T03:15:14;5.70;99.90
27409;DHT22;20413;50.782;7.152;2022-12-07T03:17:42;5.70;99.90
27409;DHT22;20413;50.782;7.152;2022-12-07T03:20:11;5.70;99.90
27409;DHT22;20413;50.782;7.152;2022-12-07T03:22:40;5.70;99.90
27409;DHT22;20413;50.782;7.152;2022-12-07T03:25:11;5.70;99.90
27409;DHT22;20413;50.782;7.152;2022-12-07T03:30:23;5.70;99.90
27409;DHT22;20413;50.782;7.152;2022-12-07T03:33:20;5.70;99.90
27409;DHT22;20413;50.782;7.152;2022-12-07T03:35:58;5.70;99.90
27409;DHT22;20413;50.782;7.152;2022-12-07T03:41:00;5.70;99.90
27409;DHT22;20413;50.782;7.152;2022-12-07T03:43:28;5.80;99.90
27409;DHT22;20413;50.782;7.152;2022-12-07T03:46:04;5.80;99.90
27409;DHT22;20413;50.782;7.152;2022-12-07T03:48:53;5.80;99.90
27409;DHT22;20413;50.782;7.152;2022-12-07T03:51:25;5.70;99.90
27409;DHT22;20413;50.782;7.152;2022-12-07T03:56:20;5.70;99.90
27409;DHT22;20413;50.782;7.152;2022-12-07T03:58:47;5.70;99.90
27409;DHT22;20413;50.782;7.152;2022-12-07T04:01:13;5.70;99.90
27409;DHT22;20413;50.782;7.152;2022-12-07T04:03:39;5.70;99.90
27409;DHT22;20413;50.782;7.152;2022-12-07T04:06:05;5.70;99.90
27409;DHT22;20413;50.782;7.152;2022-12-07T04:08:30;5.70;99.90
27409;DHT22;20413;50.782;7.152;2022-12-07T04:10:56;5.70;99.90
27409;DHT22;20413;50.782;7.152;2022-12-07T04:13:22;5.70;99.90
27409;DHT22;20413;50.782;7.152;2022-12-07T04:15:47;5.70;99.90
27409;DHT22;20413;50.782;7.152;2022-12-07T04:18:13;5.70;99.90
27409;DHT22;20413;50.782;7.152;2022-12-07T04:20:38;5.70;99.90
27409;DHT22;20413;50.782;7.152;2022-12-07T04:23:04;5.70;99.90
27409;DHT22;20413;50.782;7.152;2022-12-07T04:25:29;5.70;99.90
27409;DHT22;20413;50.782;7.152;2022-12-07T04:27:55;5.70;99.90
27409;DHT22;20413;50.782;7.152;2022-12-07T04:30:21;5.70;99.90
27409;DHT22;20413;50.782;7.152;2022-12-07T04:32:46;5.70;99.90
27409;DHT22;20413;50.782;7.152;2022-12-07T04:35:12;5.70;99.90
27409;DHT22;20413;50.782;7.152;2022-12-07T04:37:37;5.70;99.90
27409;DHT22;20413;50.782;7.152;2022-12-07T04:40:07;5.70;99.90
27409;DHT22;20413;50.782;7.152;2022-12-07T04:42:33;5.70;99.90
27409;DHT22;20413;50.782;7.152;2022-12-07T04:44:58;5.70;99.90
27409;DHT22;20413;50.782;7.152;2022-12-07T04:47:24;5.70;99.90
27409;DHT22;20413;50.782;7.152;2022-12-07T04:49:49;5.70;99.90
27409;DHT22;20413;50.782;7.152;2022-12-07T04:52:15;5.70;99.90
27409;DHT22;20413;50.782;7.152;2022-12-07T04:54:40;5.70;99.90
27409;DHT22;20413;50.782;7.152;2022-12-07T04:57:06;5.70;99.90
27409;DHT22;20413;50.782;7.152;2022-12-07T04:59:31;5.70;99.90
27409;DHT22;20413;50.782;7.152;2022-12-07T05:01:57;5.70;99.90
27409;DHT22;20413;50.782;7.152;2022-12-07T05:04:22;5.70;99.90
27409;DHT22;20413;50.782;7.152;2022-12-07T05:06:48;5.70;99.90
27409;DHT22;20413;50.782;7.152;2022-12-07T05:09:13;5.70;99.90
27409;DHT22;20413;50.782;7.152;2022-12-07T05:11:39;5.70;99.90
27409;DHT22;20413;50.782;7.152;2022-12-07T05:14:15;5.70;99.90
27409;DHT22;20413;50.782;7.152;2022-12-07T05:16:42;5.80;99.90
27409;DHT22;20413;50.782;7.152;2022-12-07T05:19:08;5.70;99.90
27409;DHT22;20413;50.782;7.152;2022-12-07T05:21:34;5.70;99.90
27409;DHT22;20413;50.782;7.152;2022-12-07T05:24:00;5.70;99.90
27409;DHT22;20413;50.782;7.152;2022-12-07T05:26:26;5.70;99.90
27409;DHT22;20413;50.782;7.152;2022-12-07T05:28:53;5.70;99.90
27409;DHT22;20413;50.782;7.152;2022-12-07T05:31:20;5.70;99.90
27409;DHT22;20413;50.782;7.152;2022-12-07T05:33:46;5.70;99.90
27409;DHT22;20413;50.782;7.152;2022-12-07T05:36:12;5.70;99.90
27409;DHT22;20413;50.782;7.152;2022-12-07T05:38:37;5.80;99.90
27409;DHT22;20413;50.782;7.152;2022-12-07T05:41:04;5.70;99.90
27409;DHT22;20413;50.782;7.152;2022-12-07T05:43:30;5.70;99.90
27409;DHT22;20413;50.782;7.152;2022-12-07T05:45:56;5.70;99.90
27409;DHT22;20413;50.782;7.152;2022-12-07T05:48:28;5.70;99.90
27409;DHT22;20413;50.782;7.152;2022-12-07T05:50:53;5.70;99.90
27409;DHT22;20413;50.782;7.152;2022-12-07T05:53:19;5.70;99.90
27409;DHT22;20413;50.782;7.152;2022-12-07T05:55:45;5.70;99.90
27409;DHT22;20413;50.782;7.152;2022-12-07T05:58:10;5.70;99.90
27409;DHT22;20413;50.782;7.152;2022-12-07T06:00:55;5.70;99.90
27409;DHT22;20413;50.782;7.152;2022-12-07T06:03:21;5.80;99.90
27409;DHT22;20413;50.782;7.152;2022-12-07T06:05:48;5.80;99.90
27409;DHT22;20413;50.782;7.152;2022-12-07T06:08:13;5.90;99.90
27409;DHT22;20413;50.782;7.152;2022-12-07T06:10:41;5.80;99.90
27409;DHT22;20413;50.782;7.152;2022-12-07T06:13:07;5.80;99.90
27409;DHT22;20413;50.782;7.152;2022-12-07T06:15:35;5.80;99.90
27409;DHT22;20413;50.782;7.152;2022-12-07T06:18:01;5.80;99.90
27409;DHT22;20413;50.782;7.152;2022-12-07T06:20:27;5.80;99.90
27409;DHT22;20413;50.782;7.152;2022-12-07T06:22:52;5.80;99.90
27409;DHT22;20413;50.782;7.152;2022-12-07T06:25:18;5.80;99.90
27409;DHT22;20413;50.782;7.152;2022-12-07T06:27:43;5.80;99.90
27409;DHT22;20413;50.782;7.152;2022-12-07T06:30:09;5.80;99.90
27409;DHT22;20413;50.782;7.152;2022-12-07T06:32:36;5.80;99.90
27409;DHT22;20413;50.782;7.152;2022-12-07T06:35:03;5.70;99.90
27409;DHT22;20413;50.782;7.152;2022-12-07T06:37:28;5.70;99.90
27409;DHT22;20413;50.782;7.152;2022-12-07T06:39:54;5.70;99.90
27409;DHT22;20413;50.782;7.152;2022-12-07T06:42:20;5.70;99.90
27409;DHT22;20413;50.782;7.152;2022-12-07T06:44:45;5.50;99.90
27409;DHT22;20413;50.782;7.152;2022-12-07T06:47:11;5.50;99.90
27409;DHT22;20413;50.782;7.152;2022-12-07T06:49:37;5.50;99.90
27409;DHT22;20413;50.782;7.152;2022-12-07T06:52:02;5.40;99.90
27409;DHT22;20413;50.782;7.152;2022-12-07T06:54:30;5.50;99.90
27409;DHT22;20413;50.782;7.152;2022-12-07T06:56:55;5.50;99.90
27409;DHT22;20413;50.782;7.152;2022-12-07T06:59:21;5.40;99.90
27409;DHT22;20413;50.782;7.152;2022-12-07T07:01:47;5.30;99.90
27409;DHT22;20413;50.782;7.152;2022-12-07T07:04:12;5.20;99.90
27409;DHT22;20413;50.782;7.152;2022-12-07T07:06:38;5.20;99.90
27409;DHT22;20413;50.782;7.152;2022-12-07T07:09:03;5.20;99.90
27409;DHT22;20413;50.782;7.152;2022-12-07T07:11:29;5.10;99.90
27409;DHT22;20413;50.782;7.152;2022-12-07T07:13:55;5.10;99.90
27409;DHT22;20413;50.782;7.152;2022-12-07T07:16:23;5.10;99.90
27409;DHT22;20413;50.782;7.152;2022-12-07T07:18:48;5.20;99.90
27409;DHT22;20413;50.782;7.152;2022-12-07T07:21:14;5.10;99.90
27409;DHT22;20413;50.782;7.152;2022-12-07T07:23:40;5.10;99.90
27409;DHT22;20413;50.782;7.152;2022-12-07T07:26:05;5.10;99.90
27409;DHT22;20413;50.782;7.152;2022-12-07T07:28:31;5.10;99.90
27409;DHT22;20413;50.782;7.152;2022-12-07T07:30:57;5.10;99.90
27409;DHT22;20413;50.782;7.152;2022-12-07T07:33:22;5.10;99.90
27409;DHT22;20413;50.782;7.152;2022-12-07T07:35:48;5.20;99.90
27409;DHT22;20413;50.782;7.152;2022-12-07T07:38:14;5.20;99.90
27409;DHT22;20413;50.782;7.152;2022-12-07T07:40:39;5.20;99.90
27409;DHT22;20413;50.782;7.152;2022-12-07T07:43:05;5.30;99.90
27409;DHT22;20413;50.782;7.152;2022-12-07T07:45:31;5.30;99.90
27409;DHT22;20413;50.782;7.152;2022-12-07T07:47:57;5.40;99.90
27409;DHT22;20413;50.782;7.152;2022-12-07T07:50:22;5.40;99.90
27409;DHT22;20413;50.782;7.152;2022-12-07T07:52:49;5.40;99.90
27409;DHT22;20413;50.782;7.152;2022-12-07T07:55:14;5.40;99.90
27409;DHT22;20413;50.782;7.152;2022-12-07T07:57:40;5.40;99.90
27409;DHT22;20413;50.782;7.152;2022-12-07T08:00:08;5.40;99.90
27409;DHT22;20413;50.782;7.152;2022-12-07T08:02:34;5.40;99.90
27409;DHT22;20413;50.782;7.152;2022-12-07T08:05:00;5.50;99.90
27409;DHT22;20413;50.782;7.152;2022-12-07T08:07:27;5.50;99.90
27409;DHT22;20413;50.782;7.152;2022-12-07T08:09:53;5.60;99.90
27409;DHT22;20413;50.782;7.152;2022-12-07T08:12:19;5.60;99.90
27409;DHT22;20413;50.782;7.152;2022-12-07T08:14:44;5.60;99.90
27409;DHT22;20413;50.782;7.152;2022-12-07T08:17:10;5.60;99.90
27409;DHT22;20413;50.782;7.152;2022-12-07T08:19:35;5.60;99.90
27409;DHT22;20413;50.782;7.152;2022-12-07T08:22:01;5.60;99.90
27409;DHT22;20413;50.782;7.152;2022-12-07T08:24:27;5.70;99.90
27409;DHT22;20413;50.782;7.152;2022-12-07T08:26:53;5.60;99.90
27409;DHT22;20413;50.782;7.152;2022-12-07T08:29:18;5.60;99.90
27409;DHT22;20413;50.782;7.152;2022-12-07T08:31:44;5.60;99.90
27409;DHT22;20413;50.782;7.152;2022-12-07T08:34:13;5.70;99.90
27409;DHT22;20413;50.782;7.152;2022-12-07T08:36:39;5.80;99.90
27409;DHT22;20413;50.782;7.152;2022-12-07T08:39:05;5.80;99.90
27409;DHT22;20413;50.782;7.152;2022-12-07T08:41:31;5.90;99.90
27409;DHT22;20413;50.782;7.152;2022-12-07T08:43:57;6.00;99.90
27409;DHT22;20413;50.782;7.152;2022-12-07T08:46:50;6.10;99.90
27409;DHT22;20413;50.782;7.152;2022-12-07T08:49:43;6.20;99.90
27409;DHT22;20413;50.782;7.152;2022-12-07T08:52:11;6.30;99.90
27409;DHT22;20413;50.782;7.152;2022-12-07T08:54:38;6.30;99.90
27409;DHT22;20413;50.782;7.152;2022-12-07T08:57:05;6.30;99.90
27409;DHT22;20413;50.782;7.152;2022-12-07T08:59:33;6.20;99.90
27409;DHT22;20413;50.782;7.152;2022-12-07T09:02:00;6.20;99.90
27409;DHT22;20413;50.782;7.152;2022-12-07T09:04:25;6.30;99.90
27409;DHT22;20413;50.782;7.152;2022-12-07T09:06:51;6.10;99.90
27409;DHT22;20413;50.782;7.152;2022-12-07T09:09:17;6.20;99.90
27409;DHT22;20413;50.782;7.152;2022-12-07T09:11:42;6.10;99.90
27409;DHT22;20413;50.782;7.152;2022-12-07T09:14:10;6.20;99.90
27409;DHT22;20413;50.782;7.152;2022-12-07T09:16:36;6.30;99.90
27409;DHT22;20413;50.782;7.152;2022-12-07T09:19:01;6.50;99.90
27409;DHT22;20413;50.782;7.152;2022-12-07T09:21:27;6.50;99.90
27409;DHT22;20413;50.782;7.152;2022-12-07T09:23:52;6.50;99.90
27409;DHT22;20413;50.782;7.152;2022-12-07T09:26:18;6.50;99.90
27409;DHT22;20413;50.782;7.152;2022-12-07T09:28:43;6.60;99.90
27409;DHT22;20413;50.782;7.152;2022-12-07T09:31:09;6.60;99.90
27409;DHT22;20413;50.782;7.152;2022-12-07T09:33:34;6.60;99.90
27409;DHT22;20413;50.782;7.152;2022-12-07T09:36:00;6.60;99.90
27409;DHT22;20413;50.782;7.152;2022-12-07T09:38:26;6.60;99.90
27409;DHT22;20413;50.782;7.152;2022-12-07T09:40:53;6.60;99.90
27409;DHT22;20413;50.782;7.152;2022-12-07T09:43:24;6.60;99.90
27409;DHT22;20413;50.782;7.152;2022-12-07T09:45:52;6.60;99.90
27409;DHT22;20413;50.782;7.152;2022-12-07T09:48:36;6.50;99.90
27409;DHT22;20413;50.782;7.152;2022-12-07T09:51:03;6.60;99.90
27409;DHT22;20413;50.782;7.152;2022-12-07T09:53:38;6.60;99.90
27409;DHT22;20413;50.782;7.152;2022-12-07T09:56:05;6.60;99.90
27409;DHT22;20413;50.782;7.152;2022-12-07T09:58:32;6.60;99.90
27409;DHT22;20413;50.782;7.152;2022-12-07T10:01:20;6.70;99.90
27409;DHT22;20413;50.782;7.152;2022-12-07T10:04:01;6.60;99.90
27409;DHT22;20413;50.782;7.152;2022-12-07T10:06:27;6.60;99.90
27409;DHT22;20413;50.782;7.152;2022-12-07T10:08:52;6.60;99.90
27409;DHT22;20413;50.782;7.152;2022-12-07T10:11:18;6.60;99.90
27409;DHT22;20413;50.782;7.152;2022-12-07T10:13:46;6.50;99.90
27409;DHT22;20413;50.782;7.152;2022-12-07T10:16:35;6.50;99.90
27409;DHT22;20413;50.782;7.152;2022-12-07T10:22:14;6.60;99.90
27409;DHT22;20413;50.782;7.152;2022-12-07T10:24:42;6.60;99.90
27409;DHT22;20413;50.782;7.152;2022-12-07T10:27:26;6.60;99.90
27409;DHT22;20413;50.782;7.152;2022-12-07T10:29:53;6.60;99.90
27409;DHT22;20413;50.782;7.152;2022-12-07T10:34:44;6.60;99.90
27409;DHT22;20413;50.782;7.152;2022-12-07T10:39:47;6.80;99.90
27409;DHT22;20413;50.782;7.152;2022-12-07T10:42:17;6.90;99.90
27409;DHT22;20413;50.782;7.152;2022-12-07T10:44:43;6.90;99.90
27409;DHT22;20413;50.782;7.152;2022-12-07T10:52:37;6.90;99.90
27409;DHT22;20413;50.782;7.152;2022-12-07T11:04:56;7.50;99.90
27409;DHT22;20413;50.782;7.152;2022-12-07T11:06:59;7.60;99.90
27409;DHT22;20413;50.782;7.152;2022-12-07T11:12:12;7.40;99.90
27409;DHT22;20413;50.782;7.152;2022-12-07T11:23:18;7.10;99.90
27409;DHT22;20413;50.782;7.152;2022-12-07T11:25:52;7.10;99.90
27409;DHT22;20413;50.782;7.152;2022-12-07T11:36:41;7.30;99.90
27409;DHT22;20413;50.782;7.152;2022-12-07T11:39:30;7.50;99.90
27409;DHT22;20413;50.782;7.152;2022-12-07T11:42:09;7.70;99.90
27409;DHT22;20413;50.782;7.152;2022-12-07T11:44:49;7.70;99.90
27409;DHT22;20413;50.782;7.152;2022-12-07T11:47:28;7.70;99.90
27409;DHT22;20413;50.782;7.152;2022-12-07T11:52:43;7.60;99.90
27409;DHT22;20413;50.782;7.152;2022-12-07T11:55:24;7.40;99.90
27409;DHT22;20413;50.782;7.152;2022-12-07T11:57:59;7.30;99.90
27409;DHT22;20413;50.782;7.152;2022-12-07T12:00:27;7.30;99.90
27409;DHT22;20413;50.782;7.152;2022-12-07T12:03:12;7.20;99.90
27409;DHT22;20413;50.782;7.152;2022-12-07T12:05:40;7.10;99.90
27409;DHT22;20413;50.782;7.152;2022-12-07T12:10:55;7.20;99.90
27409;DHT22;20413;50.782;7.152;2022-12-07T12:13:35;7.20;99.90
27409;DHT22;20413;50.782;7.152;2022-12-07T12:16:15;7.20;99.90
27409;DHT22;20413;50.782;7.152;2022-12-07T12:21:26;7.10;99.90
27409;DHT22;20413;50.782;7.152;2022-12-07T12:24:16;6.90;99.90
27409;DHT22;20413;50.782;7.152;2022-12-07T12:26:51;6.80;99.90
27409;DHT22;20413;50.782;7.152;2022-12-07T12:29:39;6.80;99.90
27409;DHT22;20413;50.782;7.152;2022-12-07T12:32:19;6.90;99.90
27409;DHT22;20413;50.782;7.152;2022-12-07T12:35:02;6.90;99.90
27409;DHT22;20413;50.782;7.152;2022-12-07T12:42:45;6.80;99.90
27409;DHT22;20413;50.782;7.152;2022-12-07T12:45:26;6.80;99.90
27409;DHT22;20413;50.782;7.152;2022-12-07T12:50:37;7.00;99.90
27409;DHT22;20413;50.782;7.152;2022-12-07T12:53:23;7.10;99.90
27409;DHT22;20413;50.782;7.152;2022-12-07T13:01:47;7.20;99.90
27409;DHT22;20413;50.782;7.152;2022-12-07T13:04:38;7.30;99.90
27409;DHT22;20413;50.782;7.152;2022-12-07T13:07:08;7.30;99.90
27409;DHT22;20413;50.782;7.152;2022-12-07T13:09:35;7.60;99.90
27409;DHT22;20413;50.782;7.152;2022-12-07T13:12:12;8.00;99.90
27409;DHT22;20413;50.782;7.152;2022-12-07T13:14:53;8.60;99.90
27409;DHT22;20413;50.782;7.152;2022-12-07T13:25:18;7.80;99.90
27409;DHT22;20413;50.782;7.152;2022-12-07T13:28:13;7.60;99.90
27409;DHT22;20413;50.782;7.152;2022-12-07T13:30:46;7.30;99.90
27409;DHT22;20413;50.782;7.152;2022-12-07T13:33:12;7.20;99.90
27409;DHT22;20413;50.782;7.152;2022-12-07T13:35:38;7.00;99.90
27409;DHT22;20413;50.782;7.152;2022-12-07T13:38:27;6.90;99.90
27409;DHT22;20413;50.782;7.152;2022-12-07T13:41:19;6.80;99.90
27409;DHT22;20413;50.782;7.152;2022-12-07T13:44:01;6.80;99.90
27409;DHT22;20413;50.782;7.152;2022-12-07T13:46:35;6.80;99.90
27409;DHT22;20413;50.782;7.152;2022-12-07T13:49:19;6.90;99.90
27409;DHT22;20413;50.782;7.152;2022-12-07T13:51:46;6.90;99.90
27409;DHT22;20413;50.782;7.152;2022-12-07T13:54:13;6.90;99.90
27409;DHT22;20413;50.782;7.152;2022-12-07T13:56:39;6.90;99.90
27409;DHT22;20413;50.782;7.152;2022-12-07T13:59:16;6.90;99.90
27409;DHT22;20413;50.782;7.152;2022-12-07T14:01:43;6.80;99.90
27409;DHT22;20413;50.782;7.152;2022-12-07T14:04:39;6.80;99.90
27409;DHT22;20413;50.782;7.152;2022-12-07T14:07:24;6.90;99.90
27409;DHT22;20413;50.782;7.152;2022-12-07T14:10:03;6.80;99.90
27409;DHT22;20413;50.782;7.152;2022-12-07T14:12:29;6.80;99.90
27409;DHT22;20413;50.782;7.152;2022-12-07T14:14:56;6.80;99.90
27409;DHT22;20413;50.782;7.152;2022-12-07T14:17:24;6.80;99.90
27409;DHT22;20413;50.782;7.152;2022-12-07T14:19:53;6.90;99.90
27409;DHT22;20413;50.782;7.152;2022-12-07T14:22:24;6.90;99.90
27409;DHT22;20413;50.782;7.152;2022-12-07T14:24:50;6.80;99.90
27409;DHT22;20413;50.782;7.152;2022-12-07T14:27:21;6.80;99.90
27409;DHT22;20413;50.782;7.152;2022-12-07T14:29:47;6.80;99.90
27409;DHT22;20413;50.782;7.152;2022-12-07T14:32:19;6.80;99.90
27409;DHT22;20413;50.782;7.152;2022-12-07T14:35:00;6.70;99.90
27409;DHT22;20413;50.782;7.152;2022-12-07T14:37:27;6.70;99.90
27409;DHT22;20413;50.782;7.152;2022-12-07T14:39:53;6.60;99.90
27409;DHT22;20413;50.782;7.152;2022-12-07T14:42:20;6.60;99.90
27409;DHT22;20413;50.782;7.152;2022-12-07T14:44:46;6.60;99.90
27409;DHT22;20413;50.782;7.152;2022-12-07T14:47:12;6.50;99.90
27409;DHT22;20413;50.782;7.152;2022-12-07T14:49:38;6.50;99.90
27409;DHT22;20413;50.782;7.152;2022-12-07T14:52:05;6.40;99.90
27409;DHT22;20413;50.782;7.152;2022-12-07T14:54:32;6.50;99.90
27409;DHT22;20413;50.782;7.152;2022-12-07T14:56:58;6.40;99.90
27409;DHT22;20413;50.782;7.152;2022-12-07T14:59:24;6.30;99.90
27409;DHT22;20413;50.782;7.152;2022-12-07T15:01:50;6.30;99.90
27409;DHT22;20413;50.782;7.152;2022-12-07T15:04:15;6.30;99.90
27409;DHT22;20413;50.782;7.152;2022-12-07T15:06:41;6.30;99.90
27409;DHT22;20413;50.782;7.152;2022-12-07T15:09:10;6.20;99.90
27409;DHT22;20413;50.782;7.152;2022-12-07T15:11:36;6.10;99.90
27409;DHT22;20413;50.782;7.152;2022-12-07T15:14:02;6.10;99.90
27409;DHT22;20413;50.782;7.152;2022-12-07T15:16:35;6.10;99.90
27409;DHT22;20413;50.782;7.152;2022-12-07T15:19:01;6.10;99.90
27409;DHT22;20413;50.782;7.152;2022-12-07T15:21:27;6.10;99.90
27409;DHT22;20413;50.782;7.152;2022-12-07T15:23:53;6.10;99.90
27409;DHT22;20413;50.782;7.152;2022-12-07T15:26:19;6.00;99.90
27409;DHT22;20413;50.782;7.152;2022-12-07T15:28:44;6.00;99.90
27409;DHT22;20413;50.782;7.152;2022-12-07T15:31:12;6.00;99.90
27409;DHT22;20413;50.782;7.152;2022-12-07T15:33:37;6.00;99.90
27409;DHT22;20413;50.782;7.152;2022-12-07T15:36:03;6.00;99.90
27409;DHT22;20413;50.782;7.152;2022-12-07T15:38:29;6.00;99.90
27409;DHT22;20413;50.782;7.152;2022-12-07T15:40:58;6.00;99.90
27409;DHT22;20413;50.782;7.152;2022-12-07T15:43:24;6.00;99.90
27409;DHT22;20413;50.782;7.152;2022-12-07T15:46:08;5.90;99.90
27409;DHT22;20413;50.782;7.152;2022-12-07T15:48:34;5.90;99.90
27409;DHT22;20413;50.782;7.152;2022-12-07T15:51:07;5.90;99.90
27409;DHT22;20413;50.782;7.152;2022-12-07T15:53:34;5.90;99.90
27409;DHT22;20413;50.782;7.152;2022-12-07T15:56:00;5.90;99.90
27409;DHT22;20413;50.782;7.152;2022-12-07T15:58:25;5.90;99.90
27409;DHT22;20413;50.782;7.152;2022-12-07T16:00:51;5.90;99.90
27409;DHT22;20413;50.782;7.152;2022-12-07T16:03:17;5.90;99.90
27409;DHT22;20413;50.782;7.152;2022-12-07T16:05:49;5.90;99.90
27409;DHT22;20413;50.782;7.152;2022-12-07T16:08:14;5.90;99.90
27409;DHT22;20413;50.782;7.152;2022-12-07T16:10:40;5.90;99.90
27409;DHT22;20413;50.782;7.152;2022-12-07T16:13:11;5.90;99.90
27409;DHT22;20413;50.782;7.152;2022-12-07T16:15:40;6.00;99.90
27409;DHT22;20413;50.782;7.152;2022-12-07T16:18:06;6.00;99.90
27409;DHT22;20413;50.782;7.152;2022-12-07T16:20:31;6.00;99.90
27409;DHT22;20413;50.782;7.152;2022-12-07T16:22:57;6.00;99.90
27409;DHT22;20413;50.782;7.152;2022-12-07T16:25:23;6.00;99.90
27409;DHT22;20413;50.782;7.152;2022-12-07T16:27:48;6.00;99.90
27409;DHT22;20413;50.782;7.152;2022-12-07T16:30:14;6.00;99.90
27409;DHT22;20413;50.782;7.152;2022-12-07T16:32:41;6.00;99.90
27409;DHT22;20413;50.782;7.152;2022-12-07T16:35:07;6.00;99.90
27409;DHT22;20413;50.782;7.152;2022-12-07T16:37:33;6.00;99.90
27409;DHT22;20413;50.782;7.152;2022-12-07T16:39:59;6.00;99.90
27409;DHT22;20413;50.782;7.152;2022-12-07T16:42:24;6.00;99.90
27409;DHT22;20413;50.782;7.152;2022-12-07T16:44:50;6.00;99.90
27409;DHT22;20413;50.782;7.152;2022-12-07T16:47:15;5.90;99.90
27409;DHT22;20413;50.782;7.152;2022-12-07T16:49:42;6.00;99.90
27409;DHT22;20413;50.782;7.152;2022-12-07T16:52:08;6.00;99.90
27409;DHT22;20413;50.782;7.152;2022-12-07T16:54:33;6.00;99.90
27409;DHT22;20413;50.782;7.152;2022-12-07T16:56:59;6.00;99.90
27409;DHT22;20413;50.782;7.152;2022-12-07T16:59:25;5.90;99.90
27409;DHT22;20413;50.782;7.152;2022-12-07T17:01:50;5.90;99.90
27409;DHT22;20413;50.782;7.152;2022-12-07T17:04:17;5.90;99.90
27409;DHT22;20413;50.782;7.152;2022-12-07T17:06:42;5.90;99.90
27409;DHT22;20413;50.782;7.152;2022-12-07T17:09:08;5.80;99.90
27409;DHT22;20413;50.782;7.152;2022-12-07T17:11:35;5.80;99.90
27409;DHT22;20413;50.782;7.152;2022-12-07T17:14:01;5.80;99.90
27409;DHT22;20413;50.782;7.152;2022-12-07T17:16:45;5.80;99.90
27409;DHT22;20413;50.782;7.152;2022-12-07T17:19:14;5.80;99.90
27409;DHT22;20413;50.782;7.152;2022-12-07T17:21:41;5.70;99.90
27409;DHT22;20413;50.782;7.152;2022-12-07T17:24:09;5.80;99.90
27409;DHT22;20413;50.782;7.152;2022-12-07T17:26:35;5.80;99.90
27409;DHT22;20413;50.782;7.152;2022-12-07T17:29:05;5.70;99.90
27409;DHT22;20413;50.782;7.152;2022-12-07T17:31:31;5.70;99.90